Terminal Aerodrome Forecast
Issued by NWS

Home | Current Version | Previous Version | Text Only | Print | Product List | Glossary On
Versions: 1 2 3 4 5 6 7 8 9 10 11 12 13 14 15 16
000
FTUS42 KFFC 071733
TAFRYY
TAF
KRYY 071733Z 0718/0818 27004KT P6SM SKC
     FM072200 27004KT P6SM SCT025
     FM080100 30004KT P6SM BKN025
     FM080900 31006KT P6SM BKN015
     FM081400 32008KT P6SM SCT050 BKN150
     FM081600 33010G15KT P6SM BKN120=

USA.gov is the U.S. government's official web portal to all federal, state and local government web resources and services.